Easton, United Kingdom
Current Conditions -  °F | °C
As of 8:20 AM on Tuesday 21 Oct 2014 (Local Time) from EGHH Reporting Station
Rain Showers Rain Showers  
Wind Chill: 57°   Ceiling: Unl
Heat Index: 57°   Visibility: 6mi
Dew Point: 52°   Wind: 21mph
Humidity: 82%   Direction: 270°W
Pressure: 29.62"   Gusts: NA
Location:  50.53°N, 2.45°W
Report Text: EGHH 210720Z 27018KT 9999 VCSH FEW011 SCT025 14/11 Q1003
Loading
Personal Weather Stations






























Interactive Weather Map
Tropical Storm Tracking
New forecast layout! Learn more

10-Day Weather Forecast

Advertisements
Track Severe Weather on mobile